Time;durP1;ratioP1;P1;durP2;ratioP2;P2;SDS_P1;SDS_P2;PMS_P1;PMS_P2;Temp;Humidity;BMP_temperature;BMP_pressure;BME280_temperature;BME280_humidity;BME280_pressure;Samples;Min_cycle;Max_cycle;Signal;HPM_P1;HPM_P2
2023/07/31 00:01:36;;;;;;;3.65;1.50;;;22.00;54.90;;;;;;5018141;28;20232;-82
2023/07/31 00:04:03;;;;;;;2.25;1.40;;;22.00;54.90;;;;;;5017567;28;20713;-82
2023/07/31 00:06:30;;;;;;;2.08;1.42;;;22.00;54.90;;;;;;5017971;28;20725;-82
2023/07/31 00:08:58;;;;;;;2.95;1.20;;;21.90;54.90;;;;;;5017791;28;20298;-82
2023/07/31 00:11:25;;;;;;;2.03;1.45;;;22.00;54.90;;;;;;4997819;28;20269;-82
2023/07/31 00:13:54;;;;;;;1.42;1.30;;;21.90;54.80;;;;;;5017955;28;20204;-81
2023/07/31 00:16:20;;;;;;;2.30;1.40;;;21.90;54.90;;;;;;5031199;22;20259;-79
2023/07/31 00:18:47;;;;;;;4.47;1.52;;;21.90;55.00;;;;;;5015240;28;20660;-79
2023/07/31 00:21:15;;;;;;;1.35;1.25;;;21.90;54.90;;;;;;5014565;28;20603;-79
2023/07/31 00:23:41;;;;;;;2.92;1.40;;;21.90;54.90;;;;;;5013839;28;20201;-79
2023/07/31 00:26:10;;;;;;;2.97;1.48;;;21.80;54.90;;;;;;5014127;28;20211;-79
2023/07/31 00:28:36;;;;;;;1.67;1.42;;;21.80;54.90;;;;;;5013653;28;20216;-80
2023/07/31 00:31:03;;;;;;;3.33;1.30;;;21.80;54.90;;;;;;5013689;28;20517;-79
2023/07/31 00:33:31;;;;;;;1.60;1.50;;;21.80;55.00;;;;;;4997527;28;20205;-79
2023/07/31 00:35:58;;;;;;;1.33;1.20;;;21.80;55.00;;;;;;5013892;28;20197;-79
2023/07/31 00:38:26;;;;;;;2.83;1.30;;;21.80;55.00;;;;;;4997575;28;20279;-79
2023/07/31 00:40:53;;;;;;;2.03;1.40;;;21.80;55.10;;;;;;5014262;28;20221;-79
2023/07/31 00:43:22;;;;;;;1.85;1.40;;;21.80;55.00;;;;;;5014459;28;20199;-79
2023/07/31 00:45:49;;;;;;;2.75;1.50;;;21.80;55.00;;;;;;5014295;28;20228;-79
2023/07/31 00:48:16;;;;;;;1.85;1.60;;;21.80;55.00;;;;;;5014401;28;20753;-79
2023/07/31 00:50:43;;;;;;;3.08;1.73;;;21.80;55.00;;;;;;5015061;28;20286;-79
2023/07/31 00:53:10;;;;;;;1.70;1.40;;;21.70;55.00;;;;;;5014437;28;20197;-79
2023/07/31 00:55:37;;;;;;;1.73;1.52;;;21.70;55.00;;;;;;5014752;28;20190;-79
2023/07/31 00:58:05;;;;;;;1.88;1.60;;;21.70;55.00;;;;;;5013598;28;20212;-79
2023/07/31 01:00:33;;;;;;;2.50;1.42;;;21.70;55.00;;;;;;5013546;28;20240;-79
2023/07/31 01:03:00;;;;;;;2.35;1.48;;;21.70;55.10;;;;;;5013469;28;20197;-81
2023/07/31 01:05:33;;;;;;;1.75;1.40;;;21.60;55.00;;;;;;4997811;28;20193;-80
2023/07/31 01:08:03;;;;;;;1.52;1.42;;;21.60;55.00;;;;;;5013239;28;20224;-80
2023/07/31 01:10:34;;;;;;;1.75;1.40;;;21.60;55.10;;;;;;5013445;28;20243;-80
2023/07/31 01:13:01;;;;;;;2.25;1.60;;;21.60;55.30;;;;;;5013270;28;20197;-80
2023/07/31 01:15:28;;;;;;;1.55;1.42;;;21.60;55.20;;;;;;5013791;28;20275;-80
2023/07/31 01:17:56;;;;;;;1.40;1.30;;;21.50;55.10;;;;;;5014200;28;20193;-80
2023/07/31 01:20:26;;;;;;;2.25;1.45;;;21.50;55.20;;;;;;5013329;28;20286;-80
2023/07/31 01:23:09;;;;;;;1.40;1.30;;;21.60;55.80;;;;;;5014313;28;20733;-80
2023/07/31 01:25:54;;;;;;;1.90;1.38;;;21.60;55.20;;;;;;5018732;28;20189;-80
2023/07/31 01:28:26;;;;;;;2.08;1.50;;;21.50;55.20;;;;;;5017638;28;20203;-80
2023/07/31 01:30:54;;;;;;;1.95;1.45;;;21.60;55.20;;;;;;5017590;28;20227;-80
2023/07/31 01:33:21;;;;;;;2.40;1.42;;;21.50;55.10;;;;;;5017118;28;20196;-80
2023/07/31 01:35:48;;;;;;;2.65;1.48;;;21.50;55.20;;;;;;5016588;28;20204;-80
2023/07/31 01:38:15;;;;;;;1.70;1.55;;;21.50;55.20;;;;;;5016754;28;20197;-80
2023/07/31 01:40:42;;;;;;;2.55;1.45;;;21.50;55.60;;;;;;5016889;28;20773;-80
2023/07/31 01:43:11;;;;;;;2.60;1.75;;;21.40;55.30;;;;;;5024762;28;20201;-80
2023/07/31 01:45:38;;;;;;;2.38;1.40;;;21.50;55.40;;;;;;5009449;28;20291;-80
2023/07/31 01:48:06;;;;;;;3.65;1.60;;;21.40;55.30;;;;;;5025462;28;20201;-80
2023/07/31 01:50:33;;;;;;;2.03;1.60;;;21.40;55.30;;;;;;5023431;28;20228;-80
2023/07/31 01:53:00;;;;;;;2.50;1.40;;;21.40;55.40;;;;;;5000122;28;20228;-80
2023/07/31 01:55:27;;;;;;;2.42;1.40;;;21.40;55.40;;;;;;5005920;28;20631;-80
2023/07/31 01:57:54;;;;;;;2.30;1.60;;;21.40;55.40;;;;;;5015924;28;20199;-80
2023/07/31 02:00:23;;;;;;;2.30;1.60;;;21.40;55.50;;;;;;5016059;28;20714;-80
2023/07/31 02:02:50;;;;;;;2.72;1.52;;;21.40;55.50;;;;;;5016020;28;20291;-80
2023/07/31 02:05:20;;;;;;;3.53;1.80;;;21.30;55.30;;;;;;5016310;28;20204;-80
2023/07/31 02:07:47;;;;;;;2.80;1.50;;;21.30;55.30;;;;;;5016699;28;20203;-80
2023/07/31 02:10:14;;;;;;;1.73;1.50;;;21.40;55.40;;;;;;5016235;28;20718;-80
2023/07/31 02:12:41;;;;;;;3.85;1.65;;;21.30;55.30;;;;;;5016710;28;20200;-80
2023/07/31 02:15:09;;;;;;;1.67;1.40;;;21.30;55.30;;;;;;5016359;28;20685;-80
2023/07/31 02:17:38;;;;;;;2.13;1.60;;;21.30;55.30;;;;;;5016176;28;20205;-80
2023/07/31 02:20:06;;;;;;;2.28;1.52;;;21.30;55.20;;;;;;5016211;28;20608;-80
2023/07/31 02:22:33;;;;;;;1.63;1.25;;;21.30;55.30;;;;;;5015846;28;20643;-80
2023/07/31 02:25:00;;;;;;;1.80;1.40;;;21.30;55.40;;;;;;5016096;28;20203;-80
2023/07/31 02:27:27;;;;;;;2.70;1.60;;;21.30;55.40;;;;;;5015978;28;20197;-80
2023/07/31 02:29:55;;;;;;;1.67;1.40;;;21.30;55.40;;;;;;5021824;28;20216;-80
2023/07/31 02:32:22;;;;;;;1.70;1.60;;;21.20;55.20;;;;;;5038552;28;20223;-80
2023/07/31 02:34:50;;;;;;;2.10;1.58;;;21.20;55.20;;;;;;5038544;28;20207;-80
2023/07/31 02:37:17;;;;;;;2.15;1.40;;;21.30;55.30;;;;;;5029114;28;20287;-80
2023/07/31 02:39:45;;;;;;;2.25;1.60;;;21.20;55.20;;;;;;4999998;28;20201;-80
2023/07/31 02:42:12;;;;;;;1.60;1.50;;;21.20;55.30;;;;;;5006004;28;20207;-80
2023/07/31 02:44:39;;;;;;;2.03;1.40;;;21.30;55.40;;;;;;5020884;28;20201;-80
2023/07/31 02:47:06;;;;;;;2.47;1.40;;;21.20;55.40;;;;;;5020359;28;20204;-80
2023/07/31 02:49:34;;;;;;;2.78;1.40;;;21.20;55.40;;;;;;5019903;28;20209;-80
2023/07/31 02:52:03;;;;;;;2.05;1.52;;;21.20;55.30;;;;;;5019990;28;20225;-80
2023/07/31 02:54:30;;;;;;;1.90;1.50;;;21.20;55.20;;;;;;5003186;28;20196;-80
2023/07/31 02:56:57;;;;;;;3.60;1.40;;;21.20;55.30;;;;;;5017742;28;20647;-80
2023/07/31 02:59:25;;;;;;;1.70;1.42;;;21.20;55.20;;;;;;5015612;28;20200;-80
2023/07/31 03:01:52;;;;;;;1.60;1.50;;;21.20;55.20;;;;;;5016185;28;20270;-80
2023/07/31 03:04:19;;;;;;;1.90;1.48;;;21.20;55.20;;;;;;5015362;28;20696;-80
2023/07/31 03:06:46;;;;;;;1.70;1.58;;;21.20;55.20;;;;;;5015611;28;20671;-79
2023/07/31 03:09:15;;;;;;;1.92;1.73;;;21.20;55.30;;;;;;5015314;28;20713;-81
2023/07/31 03:11:41;;;;;;;1.42;1.30;;;21.20;55.30;;;;;;5015431;28;20279;-79
2023/07/31 03:14:09;;;;;;;2.45;1.50;;;21.10;55.20;;;;;;5015472;28;20239;-79
2023/07/31 03:16:36;;;;;;;1.58;1.45;;;21.20;55.00;;;;;;5026765;28;20695;-79
2023/07/31 03:19:04;;;;;;;3.67;1.60;;;21.20;54.70;;;;;;5022378;28;20203;-79
2023/07/31 03:21:31;;;;;;;2.15;1.42;;;21.20;54.50;;;;;;5022395;28;20213;-79
2023/07/31 03:23:58;;;;;;;3.22;1.40;;;21.30;54.50;;;;;;5021828;28;20644;-79
2023/07/31 03:26:27;;;;;;;1.88;1.52;;;21.30;54.50;;;;;;5017146;28;20220;-79
2023/07/31 03:28:54;;;;;;;1.60;1.20;;;21.30;54.40;;;;;;5014983;28;20207;-79
2023/07/31 03:31:21;;;;;;;1.80;1.38;;;21.30;54.20;;;;;;5016204;28;20212;-79
2023/07/31 03:33:48;;;;;;;2.10;1.55;;;21.40;54.20;;;;;;5019341;28;20197;-79
2023/07/31 03:36:15;;;;;;;1.50;1.40;;;21.50;54.10;;;;;;5019371;28;20574;-81
2023/07/31 03:38:43;;;;;;;2.63;1.40;;;21.50;54.30;;;;;;5018637;28;20612;-80
2023/07/31 03:41:10;;;;;;;2.00;1.70;;;21.50;54.30;;;;;;5017715;28;20216;-80
2023/07/31 03:43:39;;;;;;;2.55;1.67;;;21.60;54.30;;;;;;5014766;28;20200;-79
2023/07/31 03:46:07;;;;;;;2.05;1.50;;;21.50;54.20;;;;;;5015101;28;20200;-81
2023/07/31 03:48:34;;;;;;;1.52;1.40;;;21.50;54.10;;;;;;5014990;28;20291;-80
2023/07/31 03:51:01;;;;;;;1.70;1.58;;;21.60;54.10;;;;;;5015929;28;20224;-80
2023/07/31 03:53:29;;;;;;;3.15;1.50;;;21.60;54.10;;;;;;5017052;28;20192;-79
2023/07/31 03:55:56;;;;;;;1.73;1.40;;;21.50;54.20;;;;;;5017985;28;20200;-79
2023/07/31 03:58:23;;;;;;;2.47;1.52;;;21.50;54.10;;;;;;5017497;28;20196;-79
2023/07/31 04:00:51;;;;;;;3.47;1.70;;;21.50;54.30;;;;;;5017022;28;20221;-79
2023/07/31 04:03:18;;;;;;;3.00;1.73;;;21.50;54.30;;;;;;5016069;28;20201;-81
2023/07/31 04:05:46;;;;;;;1.70;1.33;;;21.50;54.10;;;;;;5015996;28;20204;-80
2023/07/31 04:08:13;;;;;;;2.83;1.60;;;21.50;54.10;;;;;;5016301;28;20296;-80
2023/07/31 04:10:39;;;;;;;1.80;1.50;;;21.50;54.00;;;;;;5015150;28;20290;-80
2023/07/31 04:13:07;;;;;;;1.85;1.42;;;21.50;54.00;;;;;;5016029;28;20205;-80
2023/07/31 04:15:34;;;;;;;2.50;1.52;;;21.50;54.00;;;;;;5014905;28;20197;-80
2023/07/31 04:18:03;;;;;;;2.60;1.40;;;21.50;54.00;;;;;;5015022;28;20189;-80
2023/07/31 04:20:30;;;;;;;2.97;1.50;;;21.50;54.10;;;;;;5014756;28;20212;-80
2023/07/31 04:22:57;;;;;;;1.70;1.50;;;21.50;54.10;;;;;;4998069;28;20200;-80
2023/07/31 04:25:25;;;;;;;2.03;1.63;;;21.60;54.20;;;;;;5014760;28;20204;-80
2023/07/31 04:27:52;;;;;;;2.78;1.40;;;21.50;54.10;;;;;;5014593;28;20214;-80
2023/07/31 04:30:19;;;;;;;1.60;1.50;;;21.50;54.30;;;;;;5013523;28;20264;-80
2023/07/31 04:32:46;;;;;;;3.33;1.75;;;21.50;54.40;;;;;;4998181;28;20703;-80
2023/07/31 04:35:15;;;;;;;2.55;1.70;;;21.50;54.50;;;;;;5011344;28;20204;-80
2023/07/31 04:37:44;;;;;;;2.17;1.88;;;21.50;54.70;;;;;;5013904;28;20287;-81
2023/07/31 04:40:12;;;;;;;2.33;1.65;;;21.60;54.90;;;;;;5013344;28;20219;-80
2023/07/31 04:42:39;;;;;;;3.58;1.73;;;21.50;54.80;;;;;;5003673;28;20648;-80
2023/07/31 04:45:07;;;;;;;3.60;1.92;;;21.60;55.10;;;;;;5013446;28;20201;-80
2023/07/31 04:47:34;;;;;;;2.67;1.60;;;21.60;55.30;;;;;;5010714;28;20226;-80
2023/07/31 04:50:01;;;;;;;1.60;1.50;;;21.50;55.20;;;;;;5014662;28;20240;-80
2023/07/31 04:52:30;;;;;;;2.05;1.70;;;21.60;55.60;;;;;;5014070;28;20212;-80
2023/07/31 04:54:58;;;;;;;2.95;1.60;;;21.50;55.50;;;;;;5014320;28;20204;-80
2023/07/31 04:57:24;;;;;;;2.42;1.70;;;21.60;55.70;;;;;;5014760;28;20258;-81
2023/07/31 04:59:51;;;;;;;3.22;1.80;;;21.50;55.70;;;;;;5016013;28;20243;-81
2023/07/31 05:02:18;;;;;;;3.95;1.90;;;21.60;55.80;;;;;;5016080;28;20207;-81
2023/07/31 05:04:45;;;;;;;2.42;1.52;;;21.60;55.80;;;;;;5015724;28;20217;-80
2023/07/31 05:07:12;;;;;;;2.92;2.10;;;21.60;55.80;;;;;;5016154;28;20208;-80
2023/07/31 05:09:40;;;;;;;1.67;1.58;;;21.70;55.90;;;;;;5016384;28;20331;-80
2023/07/31 05:12:08;;;;;;;3.63;1.85;;;21.70;55.80;;;;;;5016623;28;20240;-81
2023/07/31 05:14:35;;;;;;;2.10;1.63;;;21.70;55.90;;;;;;5016707;28;20599;-81
2023/07/31 05:17:02;;;;;;;2.22;1.85;;;21.80;56.00;;;;;;5016766;28;20667;-81
2023/07/31 05:19:29;;;;;;;3.40;1.50;;;21.70;55.90;;;;;;5016932;28;20561;-82
2023/07/31 05:21:56;;;;;;;2.90;1.70;;;21.70;55.60;;;;;;5016864;28;20224;-82
2023/07/31 05:24:23;;;;;;;2.35;1.90;;;21.80;55.60;;;;;;5017219;28;20639;-82
2023/07/31 05:26:51;;;;;;;5.15;1.88;;;21.80;55.30;;;;;;5017433;28;20265;-82
2023/07/31 05:29:18;;;;;;;2.70;1.67;;;21.80;55.30;;;;;;5017777;28;20211;-81
2023/07/31 05:31:45;;;;;;;2.05;1.65;;;21.90;55.40;;;;;;5016633;28;20259;-81
2023/07/31 05:34:12;;;;;;;2.47;1.60;;;21.90;55.30;;;;;;5016751;28;20229;-82
2023/07/31 05:36:39;;;;;;;2.08;1.63;;;21.90;55.20;;;;;;5016979;28;20283;-82
2023/07/31 05:39:08;;;;;;;2.40;1.77;;;21.90;55.10;;;;;;5000270;28;20283;-82
2023/07/31 05:41:36;;;;;;;3.75;1.50;;;22.00;55.10;;;;;;5017009;28;20213;-79
2023/07/31 05:44:05;;;;;;;2.95;1.63;;;22.00;55.00;;;;;;5016507;28;20247;-77
2023/07/31 05:46:31;;;;;;;2.72;1.60;;;22.20;54.80;;;;;;4999940;28;20208;-77
2023/07/31 05:49:00;;;;;;;4.05;1.90;;;22.30;54.50;;;;;;5015802;28;20211;-77
2023/07/31 05:51:28;;;;;;;1.75;1.50;;;22.40;54.20;;;;;;5015666;28;20228;-77
2023/07/31 05:53:58;;;;;;;2.40;1.73;;;22.60;53.90;;;;;;5003239;28;20232;-77
2023/07/31 05:56:27;;;;;;;1.92;1.40;;;22.70;53.70;;;;;;5018232;28;20197;-77
2023/07/31 05:58:53;;;;;;;2.45;1.50;;;22.90;53.50;;;;;;5017024;28;20287;-77
2023/07/31 06:01:22;;;;;;;2.50;1.58;;;23.00;53.30;;;;;;5017335;28;20217;-77
2023/07/31 06:03:49;;;;;;;1.75;1.55;;;23.10;52.80;;;;;;5017451;28;20207;-77
2023/07/31 06:06:16;;;;;;;2.00;1.55;;;23.10;52.70;;;;;;5016728;28;20209;-77
2023/07/31 06:08:44;;;;;;;2.70;1.70;;;23.10;52.70;;;;;;5016822;28;20224;-77
2023/07/31 06:11:11;;;;;;;2.00;1.80;;;23.10;52.70;;;;;;5015723;28;20600;-77
2023/07/31 06:13:38;;;;;;;2.05;1.50;;;23.20;52.80;;;;;;5016900;28;20300;-77
2023/07/31 06:16:06;;;;;;;2.72;1.60;;;23.20;52.60;;;;;;5062252;22;20227;-78
2023/07/31 06:18:34;;;;;;;1.73;1.60;;;23.20;52.70;;;;;;5018825;28;20208;-78
2023/07/31 06:21:01;;;;;;;2.75;2.00;;;23.30;52.80;;;;;;5036793;28;20209;-78
2023/07/31 06:23:28;;;;;;;2.03;1.55;;;23.30;52.40;;;;;;5018896;28;20207;-78
2023/07/31 06:25:55;;;;;;;2.20;1.60;;;23.40;52.40;;;;;;5018687;28;20664;-78
2023/07/31 06:28:22;;;;;;;1.92;1.50;;;23.50;52.40;;;;;;5019191;28;20207;-78
2023/07/31 06:30:49;;;;;;;1.80;1.52;;;23.50;52.20;;;;;;5036042;28;20244;-78
2023/07/31 06:33:16;;;;;;;2.67;1.48;;;23.50;52.20;;;;;;5018304;28;20200;-78
2023/07/31 06:35:45;;;;;;;1.95;1.45;;;23.50;52.10;;;;;;5018172;28;20200;-78
2023/07/31 06:38:13;;;;;;;1.63;1.50;;;23.60;52.00;;;;;;5019196;28;20200;-78
2023/07/31 06:40:39;;;;;;;2.00;1.50;;;23.70;51.80;;;;;;5018257;28;20586;-78
2023/07/31 06:43:07;;;;;;;2.67;1.50;;;23.80;51.80;;;;;;5018839;28;20207;-78
2023/07/31 06:45:35;;;;;;;3.15;1.50;;;23.90;51.50;;;;;;5018811;28;20287;-78
2023/07/31 06:48:03;;;;;;;1.77;1.50;;;24.00;51.40;;;;;;5018366;28;20231;-78
2023/07/31 06:50:31;;;;;;;3.63;1.70;;;24.10;51.20;;;;;;5017965;28;20251;-78
2023/07/31 06:52:59;;;;;;;1.90;1.67;;;24.20;51.00;;;;;;5018269;28;20570;-78
2023/07/31 06:55:26;;;;;;;1.75;1.52;;;24.30;50.80;;;;;;5001908;28;20192;-78
2023/07/31 06:57:54;;;;;;;2.67;1.30;;;24.40;50.60;;;;;;5018284;28;20215;-78
2023/07/31 07:00:22;;;;;;;2.78;1.58;;;24.50;50.40;;;;;;5001904;28;20212;-78
2023/07/31 07:02:49;;;;;;;1.75;1.40;;;24.60;50.30;;;;;;5019125;28;20207;-78
2023/07/31 07:05:16;;;;;;;2.38;1.70;;;24.60;50.00;;;;;;5020628;28;20207;-78
2023/07/31 07:07:44;;;;;;;3.40;1.60;;;24.70;49.80;;;;;;5023074;28;20570;-78
2023/07/31 07:10:12;;;;;;;2.90;1.50;;;24.90;49.70;;;;;;5019724;28;20208;-78
2023/07/31 07:12:39;;;;;;;1.60;1.40;;;25.00;49.70;;;;;;5018802;28;20219;-78
2023/07/31 07:15:07;;;;;;;2.83;1.50;;;25.10;49.20;;;;;;5018527;28;20654;-78
2023/07/31 07:17:34;;;;;;;1.88;1.33;;;25.20;49.20;;;;;;5013084;28;20204;-78
2023/07/31 07:20:00;;;;;;;1.85;1.45;;;25.20;48.80;;;;;;5020874;28;20274;-78
2023/07/31 07:22:27;;;;;;;3.38;1.60;;;25.30;48.70;;;;;;5019309;28;20192;-78
2023/07/31 07:24:54;;;;;;;2.53;1.42;;;25.40;48.60;;;;;;5017540;28;20287;-78
2023/07/31 07:27:23;;;;;;;1.95;1.50;;;25.30;48.70;;;;;;5017561;28;20246;-78
2023/07/31 07:29:51;;;;;;;2.10;1.33;;;25.30;48.80;;;;;;5017217;28;20204;-78
2023/07/31 07:32:18;;;;;;;2.63;1.40;;;25.20;48.90;;;;;;5017199;28;20269;-78
2023/07/31 07:34:45;;;;;;;2.90;1.50;;;25.10;49.00;;;;;;5017446;28;20203;-78
2023/07/31 07:37:12;;;;;;;1.63;1.50;;;25.10;49.10;;;;;;5001503;28;20235;-78
2023/07/31 07:39:39;;;;;;;3.10;1.50;;;25.00;49.10;;;;;;5017068;28;20284;-78
2023/07/31 07:42:07;;;;;;;1.65;1.55;;;25.00;49.10;;;;;;5017008;28;20266;-78
2023/07/31 07:44:35;;;;;;;2.78;1.48;;;25.00;49.30;;;;;;5034900;28;20218;-78
2023/07/31 07:47:02;;;;;;;1.95;1.60;;;25.00;49.30;;;;;;5017466;28;20207;-78
2023/07/31 07:49:29;;;;;;;1.98;1.50;;;25.00;49.30;;;;;;5017836;28;20200;-79
2023/07/31 07:51:56;;;;;;;2.42;1.50;;;25.00;49.30;;;;;;5017706;28;20224;-78
2023/07/31 07:54:23;;;;;;;2.03;1.55;;;25.00;49.10;;;;;;5018152;28;20203;-78
2023/07/31 07:56:50;;;;;;;2.15;1.55;;;25.10;49.10;;;;;;5017484;28;20192;-78
2023/07/31 07:59:17;;;;;;;2.30;1.60;;;25.10;48.80;;;;;;5017069;28;20211;-78
2023/07/31 08:01:45;;;;;;;2.30;1.60;;;25.20;48.50;;;;;;5017191;28;20235;-78
2023/07/31 08:04:12;;;;;;;2.08;1.65;;;25.40;48.30;;;;;;5017294;28;20203;-78
2023/07/31 08:06:39;;;;;;;2.42;1.60;;;25.60;48.60;;;;;;5017371;28;20196;-77
2023/07/31 08:09:08;;;;;;;1.45;1.33;;;25.70;47.60;;;;;;5018232;28;20250;-79
2023/07/31 08:11:35;;;;;;;1.73;1.45;;;25.80;47.80;;;;;;5016904;28;20220;-78
2023/07/31 08:14:02;;;;;;;2.63;1.63;;;25.90;47.00;;;;;;5035793;28;20192;-79
2023/07/31 08:16:29;;;;;;;1.48;1.38;;;25.90;47.30;;;;;;5017096;28;20207;-79
2023/07/31 08:18:58;;;;;;;2.33;1.55;;;25.90;47.10;;;;;;5034972;28;20192;-79
2023/07/31 08:21:25;;;;;;;2.47;1.70;;;26.00;46.90;;;;;;5016641;28;20216;-79
2023/07/31 08:23:52;;;;;;;1.98;1.58;;;26.10;46.60;;;;;;5016536;28;20209;-79
2023/07/31 08:26:19;;;;;;;1.52;1.42;;;26.20;46.40;;;;;;5016482;28;20277;-79
2023/07/31 08:28:47;;;;;;;1.90;1.65;;;26.40;46.30;;;;;;5016747;28;20197;-79
2023/07/31 08:31:14;;;;;;;1.73;1.42;;;26.50;45.90;;;;;;5001215;28;20659;-79
2023/07/31 08:33:41;;;;;;;1.80;1.65;;;26.60;45.40;;;;;;5016528;28;20681;-79
2023/07/31 08:36:09;;;;;;;2.88;1.50;;;26.70;45.00;;;;;;5034345;28;20536;-78
2023/07/31 08:38:37;;;;;;;2.63;1.77;;;26.90;44.80;;;;;;5016496;28;20226;-78
2023/07/31 08:41:04;;;;;;;1.98;1.83;;;27.00;44.40;;;;;;5016360;28;20273;-78
2023/07/31 08:43:32;;;;;;;2.13;1.70;;;27.10;44.20;;;;;;5000323;28;20209;-78
2023/07/31 08:45:59;;;;;;;2.78;1.77;;;27.10;43.80;;;;;;5017411;28;20258;-78
2023/07/31 08:48:26;;;;;;;2.65;1.73;;;27.20;43.70;;;;;;5016372;28;20246;-78
2023/07/31 08:50:53;;;;;;;4.07;1.70;;;27.20;43.50;;;;;;5016742;28;20247;-78
2023/07/31 08:53:21;;;;;;;3.15;1.80;;;27.20;43.30;;;;;;5016593;28;20641;-78
2023/07/31 08:55:49;;;;;;;2.95;1.80;;;27.30;43.40;;;;;;5016721;28;20200;-78
2023/07/31 08:58:16;;;;;;;2.15;1.70;;;27.40;43.10;;;;;;5017726;28;20196;-78
2023/07/31 09:00:43;;;;;;;3.13;2.13;;;27.50;42.90;;;;;;5016388;28;20223;-78
2023/07/31 09:03:13;;;;;;;2.25;1.95;;;27.50;42.80;;;;;;5016585;28;20191;-78
2023/07/31 09:05:42;;;;;;;3.00;1.90;;;27.50;42.80;;;;;;5017079;28;20195;-78
2023/07/31 09:08:09;;;;;;;3.30;1.80;;;27.50;42.60;;;;;;5016619;28;20207;-78
2023/07/31 09:10:41;;;;;;;3.08;1.83;;;27.50;42.90;;;;;;5016928;28;20222;-78
2023/07/31 09:13:08;;;;;;;3.67;2.00;;;27.30;43.00;;;;;;5001678;28;20191;-78
2023/07/31 09:15:35;;;;;;;2.88;2.00;;;27.20;43.30;;;;;;5007724;28;20210;-78
2023/07/31 09:18:03;;;;;;;2.15;1.70;;;27.20;43.40;;;;;;5022162;28;20198;-78
2023/07/31 09:20:31;;;;;;;2.15;1.80;;;27.10;43.50;;;;;;5002330;28;20224;-78
2023/07/31 09:23:05;;;;;;;2.28;1.60;;;27.10;43.70;;;;;;5001655;28;20534;-78
2023/07/31 09:25:32;;;;;;;3.83;2.03;;;27.10;43.70;;;;;;5017095;28;20253;-78
2023/07/31 09:28:02;;;;;;;2.85;2.00;;;27.10;43.60;;;;;;5000576;28;20199;-78
2023/07/31 09:30:29;;;;;;;2.40;1.63;;;27.00;43.70;;;;;;5019224;28;20278;-78
2023/07/31 09:33:01;;;;;;;3.03;2.03;;;26.90;43.70;;;;;;5020811;28;20254;-78
2023/07/31 09:35:29;;;;;;;3.50;2.00;;;26.80;43.90;;;;;;5016942;28;20192;-78
2023/07/31 09:37:58;;;;;;;2.92;2.10;;;26.70;44.00;;;;;;5017022;28;20199;-78
2023/07/31 09:40:29;;;;;;;2.15;1.80;;;26.60;44.10;;;;;;5016673;28;20219;-78
2023/07/31 09:43:25;;;;;;;2.72;2.08;;;26.60;44.20;;;;;;5016572;28;20575;-78
2023/07/31 09:45:56;;;;;;;3.53;2.30;;;26.60;44.40;;;;;;5018230;28;20199;-78
2023/07/31 09:48:26;;;;;;;2.45;2.00;;;26.60;44.40;;;;;;5020021;28;20237;-78
2023/07/31 09:50:54;;;;;;;2.85;2.17;;;26.50;44.60;;;;;;5020313;28;20523;-78
2023/07/31 09:53:21;;;;;;;2.83;1.90;;;26.50;44.60;;;;;;5019996;28;20193;-78
2023/07/31 09:55:48;;;;;;;3.15;2.00;;;26.40;44.70;;;;;;5020126;28;20659;-78
2023/07/31 09:58:15;;;;;;;2.03;1.63;;;26.30;44.80;;;;;;5020039;28;20200;-78
2023/07/31 10:00:43;;;;;;;3.03;2.10;;;26.30;45.00;;;;;;5020002;28;20223;-78
2023/07/31 10:03:11;;;;;;;2.47;1.92;;;26.30;45.20;;;;;;5019945;28;20196;-78
2023/07/31 10:05:39;;;;;;;3.83;2.22;;;26.20;45.30;;;;;;5020346;28;20206;-78
2023/07/31 10:08:05;;;;;;;2.15;1.90;;;26.20;45.30;;;;;;5020306;28;20660;-78
2023/07/31 10:10:32;;;;;;;2.83;2.20;;;26.20;45.20;;;;;;5003348;28;20223;-78
2023/07/31 10:13:00;;;;;;;2.78;1.90;;;26.20;45.30;;;;;;5003405;28;20215;-78
2023/07/31 10:15:27;;;;;;;2.75;1.90;;;26.20;45.20;;;;;;5019345;28;20245;-78
2023/07/31 10:17:56;;;;;;;2.10;1.90;;;26.20;45.30;;;;;;5019900;28;20199;-78
2023/07/31 10:20:23;;;;;;;2.20;1.90;;;26.20;45.60;;;;;;5019017;28;20234;-78
2023/07/31 10:22:50;;;;;;;3.03;2.08;;;26.20;45.40;;;;;;5019172;28;20254;-78
2023/07/31 10:25:17;;;;;;;3.08;2.20;;;26.20;45.70;;;;;;5003314;28;20234;-78
2023/07/31 10:27:44;;;;;;;2.97;2.42;;;26.10;45.50;;;;;;5019013;28;20644;-78
2023/07/31 10:30:13;;;;;;;3.55;2.17;;;26.20;45.40;;;;;;5019367;28;20204;-78
2023/07/31 10:32:40;;;;;;;2.90;2.00;;;26.20;45.60;;;;;;5018922;28;20211;-78
2023/07/31 10:35:09;;;;;;;3.22;2.15;;;26.20;45.40;;;;;;5019558;28;20218;-78
2023/07/31 10:37:38;;;;;;;3.17;2.13;;;26.20;45.30;;;;;;5018796;28;20202;-78
2023/07/31 10:40:06;;;;;;;3.10;2.20;;;26.20;45.30;;;;;;5019141;28;20254;-78
2023/07/31 10:42:35;;;;;;;3.70;2.30;;;26.20;45.40;;;;;;5019220;28;20241;-78
2023/07/31 10:45:03;;;;;;;3.17;2.13;;;26.20;45.50;;;;;;5036672;28;20187;-78
2023/07/31 10:47:30;;;;;;;2.53;1.92;;;26.20;45.50;;;;;;5009883;28;20172;-78
2023/07/31 10:50:28;;;;;;;3.75;1.98;;;26.20;45.40;;;;;;5006428;28;20200;-78
2023/07/31 10:52:55;;;;;;;3.78;2.08;;;26.20;45.40;;;;;;5018481;28;20223;-78
2023/07/31 10:55:30;;;;;;;3.15;2.03;;;26.20;45.30;;;;;;5018512;28;20195;-78
2023/07/31 10:57:58;;;;;;;3.15;2.00;;;26.20;45.20;;;;;;5035806;28;20258;-78
2023/07/31 11:00:27;;;;;;;3.13;2.05;;;26.20;45.20;;;;;;5018068;28;20219;-78
2023/07/31 11:03:04;;;;;;;3.53;2.30;;;26.20;45.30;;;;;;5018138;28;20198;-78
2023/07/31 11:05:49;;;;;;;2.92;1.92;;;26.20;45.40;;;;;;5018274;28;20679;-78
2023/07/31 11:08:17;;;;;;;3.17;2.20;;;26.20;45.40;;;;;;5018746;28;20291;-78
2023/07/31 11:10:44;;;;;;;2.90;2.08;;;26.20;45.40;;;;;;5018169;28;20655;-78
2023/07/31 11:13:11;;;;;;;2.30;2.10;;;26.20;45.40;;;;;;5018244;28;20226;-78
2023/07/31 11:15:38;;;;;;;2.85;1.90;;;26.20;45.40;;;;;;5017953;28;20237;-78
2023/07/31 11:18:05;;;;;;;3.33;2.17;;;26.20;45.40;;;;;;5017938;28;20191;-78
2023/07/31 11:20:32;;;;;;;2.30;1.90;;;26.20;45.50;;;;;;5001783;28;20224;-78
2023/07/31 11:23:02;;;;;;;2.10;1.90;;;26.20;45.40;;;;;;5017488;28;20195;-78
2023/07/31 11:25:30;;;;;;;4.18;2.00;;;26.20;45.60;;;;;;5018188;28;20192;-78
2023/07/31 11:27:57;;;;;;;2.55;1.90;;;26.10;45.40;;;;;;5017984;28;20204;-78
2023/07/31 11:30:24;;;;;;;3.60;2.25;;;26.20;45.40;;;;;;5017709;28;20223;-78
2023/07/31 11:32:51;;;;;;;2.75;1.90;;;26.20;45.50;;;;;;5017509;28;20211;-78
2023/07/31 11:35:18;;;;;;;3.35;2.15;;;26.10;45.40;;;;;;5017862;28;20196;-78
2023/07/31 11:37:45;;;;;;;2.80;2.25;;;26.10;45.50;;;;;;5017420;28;20253;-78
2023/07/31 11:40:14;;;;;;;3.97;2.70;;;26.10;45.70;;;;;;5035056;28;20219;-78
2023/07/31 11:42:40;;;;;;;2.88;2.17;;;26.10;45.90;;;;;;5017243;28;20187;-78
2023/07/31 11:45:09;;;;;;;3.28;2.25;;;26.10;45.90;;;;;;5018132;28;20234;-78
2023/07/31 11:47:36;;;;;;;3.28;2.20;;;26.00;45.90;;;;;;5017224;28;20298;-78
2023/07/31 11:50:03;;;;;;;2.80;2.00;;;26.00;45.90;;;;;;5000715;28;20203;-78
2023/07/31 11:52:30;;;;;;;2.63;2.22;;;26.00;46.10;;;;;;5017077;28;20320;-78
2023/07/31 11:54:57;;;;;;;3.08;2.25;;;26.00;46.10;;;;;;5017208;28;20199;-78
2023/07/31 11:57:27;;;;;;;2.53;2.17;;;26.00;46.20;;;;;;5016935;28;20270;-78
2023/07/31 11:59:54;;;;;;;3.40;2.10;;;26.00;46.20;;;;;;5016900;28;20302;-78
2023/07/31 12:02:21;;;;;;;2.35;2.00;;;25.90;46.30;;;;;;5017218;28;20235;-78
2023/07/31 12:04:48;;;;;;;2.95;2.20;;;25.90;46.40;;;;;;5001751;28;20642;-79
2023/07/31 12:07:15;;;;;;;2.40;1.98;;;25.90;46.40;;;;;;5017593;28;20314;-79
2023/07/31 12:09:52;;;;;;;3.58;2.10;;;25.90;46.50;;;;;;5001170;28;20611;-79
2023/07/31 12:12:20;;;;;;;2.75;2.20;;;25.90;46.60;;;;;;5001042;28;20683;-79
2023/07/31 12:14:50;;;;;;;2.00;1.80;;;25.90;46.70;;;;;;5017546;28;20251;-79
2023/07/31 12:17:18;;;;;;;2.67;2.20;;;25.90;46.80;;;;;;5015919;23;20273;-74
2023/07/31 12:19:45;;;;;;;3.95;2.33;;;25.80;46.80;;;;;;5000272;28;20195;-74
2023/07/31 12:22:12;;;;;;;2.45;2.20;;;25.80;46.80;;;;;;5016481;28;20215;-74
2023/07/31 12:24:40;;;;;;;2.83;1.90;;;25.80;46.90;;;;;;5016292;28;20202;-74
2023/07/31 12:27:10;;;;;;;2.63;2.00;;;25.80;47.00;;;;;;5034486;28;20270;-74
2023/07/31 12:29:37;;;;;;;2.45;1.80;;;25.80;47.10;;;;;;5016872;28;20191;-74
2023/07/31 12:32:07;;;;;;;2.10;1.90;;;25.80;47.20;;;;;;5019334;28;20223;-74
2023/07/31 12:34:42;;;;;;;2.20;2.00;;;25.70;47.10;;;;;;5020459;28;20257;-74
2023/07/31 12:37:10;;;;;;;3.33;2.38;;;25.70;47.30;;;;;;5024061;28;20191;-75
2023/07/31 12:39:37;;;;;;;2.33;2.13;;;25.70;47.30;;;;;;5035078;28;20192;-75
2023/07/31 12:42:05;;;;;;;3.22;2.35;;;25.70;47.30;;;;;;5017145;28;20310;-75
2023/07/31 12:44:32;;;;;;;3.25;2.20;;;25.70;47.40;;;;;;5017996;28;20234;-75
2023/07/31 12:46:59;;;;;;;2.15;1.90;;;25.70;47.40;;;;;;5033776;28;20191;-75
2023/07/31 12:49:27;;;;;;;2.28;2.00;;;25.70;47.50;;;;;;5016713;28;20244;-75
2023/07/31 12:51:54;;;;;;;3.83;2.30;;;25.60;47.50;;;;;;5016333;28;20724;-75